Time;durP1;ratioP1;P1;durP2;ratioP2;P2;SDS_P1;SDS_P2;PMS_P1;PMS_P2;Temp;Humidity;BMP_temperature;BMP_pressure;BME280_temperature;BME280_humidity;BME280_pressure;Samples;Min_cycle;Max_cycle;Signal;HPM_P1;HPM_P2
2024/01/19 00:01:11;;;;;;;;;26.00;25.25;;;;;0.51;72.79;101086.78;5117924;27;45165;-81
2024/01/19 00:03:36;;;;;;;;;32.25;28.50;;;;;0.42;73.14;101067.69;5118310;27;45223;-80
2024/01/19 00:06:02;;;;;;;;;32.25;29.00;;;;;0.62;72.83;101101.56;5118956;27;45502;-80
2024/01/19 00:08:27;;;;;;;;;29.50;29.25;;;;;0.55;73.06;101093.75;5117806;27;45249;-81
2024/01/19 00:10:52;;;;;;;;;30.50;30.25;;;;;0.57;72.32;101094.59;5118293;27;45357;-81
2024/01/19 00:13:18;;;;;;;;;33.50;29.00;;;;;0.60;72.27;101104.19;5118079;27;46047;-78
2024/01/19 00:15:43;;;;;;;;;25.50;25.00;;;;;0.49;73.13;101082.44;5117717;27;45467;-82
2024/01/19 00:18:10;;;;;;;;;31.00;31.00;;;;;0.65;72.68;101104.13;5116508;27;60982;-81
2024/01/19 00:20:35;;;;;;;;;35.00;32.25;;;;;0.65;72.72;101089.34;5117997;27;45400;-80
2024/01/19 00:23:00;;;;;;;;;37.00;29.25;;;;;0.77;72.23;101111.91;5117059;27;45311;-80
2024/01/19 00:25:26;;;;;;;;;37.00;27.50;;;;;0.69;71.99;101095.41;5117310;27;45893;-79
2024/01/19 00:27:51;;;;;;;;;32.25;32.25;;;;;0.72;72.06;101101.47;5117855;27;45483;-79
2024/01/19 00:30:17;;;;;;;;;27.75;27.75;;;;;0.67;72.10;101086.69;5117567;27;45400;-80
2024/01/19 00:32:42;;;;;;;;;39.50;34.75;;;;;0.83;72.07;101115.34;5117969;27;45393;-81
2024/01/19 00:35:07;;;;;;;;;36.75;31.75;;;;;0.91;72.27;101127.50;5116757;27;50660;-80
2024/01/19 00:37:33;;;;;;;;;38.50;33.25;;;;;0.84;70.78;101124.94;5117444;27;45413;-80
2024/01/19 00:39:58;;;;;;;;;35.00;31.75;;;;;0.72;71.30;101109.31;5117492;27;45273;-80
2024/01/19 00:42:23;;;;;;;;;33.75;31.25;;;;;0.78;71.92;101124.09;5111681;27;45525;-79
2024/01/19 00:44:49;;;;;;;;;38.25;32.50;;;;;0.77;71.77;101125.00;5116872;27;45302;-78
2024/01/19 00:47:14;;;;;;;;;39.25;31.00;;;;;0.85;71.69;101141.53;5117131;27;46479;-80
2024/01/19 00:49:39;;;;;;;;;42.50;34.00;;;;;0.86;71.91;101140.63;5121605;27;45328;-79
2024/01/19 00:52:05;;;;;;;;;43.75;38.00;;;;;0.78;72.01;101138.09;5138112;27;45310;-79
2024/01/19 00:54:30;;;;;;;;;42.50;33.50;;;;;0.67;71.84;101132.06;5121935;27;45535;-81
2024/01/19 00:56:56;;;;;;;;;37.00;28.00;;;;;0.71;72.70;101146.00;5116967;27;46190;-79
2024/01/19 00:59:21;;;;;;;;;37.25;32.00;;;;;0.73;72.60;101141.63;5117177;27;45346;-79
2024/01/19 01:01:46;;;;;;;;;44.00;36.50;;;;;0.72;72.86;101140.75;5115940;27;45873;-81
2024/01/19 01:04:12;;;;;;;;;27.00;26.00;;;;;0.65;72.71;101135.56;5117658;27;45231;-81
2024/01/19 01:06:37;;;;;;;;;41.00;37.25;;;;;0.74;72.78;101151.19;5116410;27;45989;-81
2024/01/19 01:09:03;;;;;;;;;38.50;35.50;;;;;0.77;73.00;101149.41;5117064;27;45255;-80
2024/01/19 01:11:29;;;;;;;;;34.75;33.50;;;;;0.63;72.90;101134.69;5117319;27;45430;-79
2024/01/19 01:13:55;;;;;;;;;37.00;34.00;;;;;0.71;73.05;101153.84;5117196;27;45507;-83
2024/01/19 01:16:20;;;;;;;;;46.00;33.00;;;;;0.66;72.89;101153.03;5101434;27;46822;-81
2024/01/19 01:18:45;;;;;;;;;46.50;40.75;;;;;0.58;72.70;101158.28;5120489;27;45431;-80
2024/01/19 01:21:11;;;;;;;;;34.25;34.00;;;;;0.44;73.21;101160.13;5120819;27;45401;-83
2024/01/19 01:23:36;;;;;;;;;42.50;38.25;;;;;0.40;73.49;101164.50;5120892;27;45244;-82
2024/01/19 01:26:01;;;;;;;;;42.75;40.50;;;;;0.28;73.57;101164.56;5118341;27;50992;-83
2024/01/19 01:28:27;;;;;;;;;39.00;35.00;;;;;0.35;74.20;101170.63;5120771;27;52284;-82
2024/01/19 01:30:52;;;;;;;;;37.50;29.00;;;;;0.37;73.74;101180.19;5120354;27;49330;-81
2024/01/19 01:33:17;;;;;;;;;34.00;31.25;;;;;0.31;74.20;101179.38;5119493;27;45475;-78
2024/01/19 01:35:43;;;;;;;;;47.00;39.50;;;;;0.38;74.02;101184.56;5132575;27;46052;-82
2024/01/19 01:38:08;;;;;;;;;41.25;36.00;;;;;0.33;74.17;101180.22;5141067;27;45414;-81
2024/01/19 01:40:33;;;;;;;;;32.25;32.25;;;;;0.43;73.91;101189.78;5135329;27;45568;-82
2024/01/19 01:43:05;;;;;;;;;30.00;26.75;;;;;0.49;73.66;101195.84;5120748;27;45665;-82
2024/01/19 01:45:30;;;;;;;;;41.50;33.50;;;;;0.46;73.47;101201.09;5119855;27;46182;-80
2024/01/19 01:47:56;;;;;;;;;41.00;36.75;;;;;0.40;73.87;101206.38;5118174;27;45471;-81
2024/01/19 01:50:22;;;;;;;;;43.25;34.75;;;;;0.36;73.80;101204.63;5120451;27;45530;-80
2024/01/19 01:52:48;;;;;;;;;33.00;28.00;;;;;0.26;73.93;101192.47;5120399;27;45525;-81
2024/01/19 01:55:15;;;;;;;;;36.50;34.00;;;;;0.33;74.01;101203.78;5101397;27;46299;-81
2024/01/19 01:57:43;;;;;;;;;35.75;31.25;;;;;0.34;73.94;101208.13;5120014;27;45527;-78
2024/01/19 02:00:09;;;;;;;;;38.75;37.25;;;;;0.29;74.34;101202.94;5120298;27;45377;-80
2024/01/19 02:02:37;;;;;;;;;39.50;32.25;;;;;0.24;73.94;101187.25;5122278;27;45610;-80
2024/01/19 02:05:02;;;;;;;;;40.25;35.25;;;;;0.27;73.88;101194.22;5140578;27;45402;-79
2024/01/19 02:07:28;;;;;;;;;37.00;30.00;;;;;0.28;74.13;101212.53;5129072;27;45569;-80
2024/01/19 02:09:53;;;;;;;;;41.00;40.50;;;;;0.36;74.29;101209.88;5119846;27;45376;-79
2024/01/19 02:12:18;;;;;;;;;37.00;28.25;;;;;0.39;74.13;101208.97;5119687;27;45307;-80
2024/01/19 02:14:44;;;;;;;;;37.25;33.25;;;;;0.46;74.33;101208.09;5119740;27;46313;-80
2024/01/19 02:17:09;;;;;;;;;36.75;34.25;;;;;0.53;74.04;101218.53;5119615;27;45343;-80
2024/01/19 02:19:35;;;;;;;;;39.25;34.00;;;;;0.48;74.01;101206.31;5117819;27;45520;-80
2024/01/19 02:22:02;;;;;;;;;44.75;35.75;;;;;0.57;73.58;101222.84;5121047;27;45485;-80
2024/01/19 02:24:27;;;;;;;;;38.00;33.00;;;;;0.56;74.17;101222.88;5121366;27;45991;-82
2024/01/19 02:26:55;;;;;;;;;36.75;34.00;;;;;0.45;74.01;101208.97;5119765;27;45482;-80
2024/01/19 02:29:20;;;;;;;;;38.50;35.00;;;;;0.42;73.71;101201.13;5101200;27;45416;-82
2024/01/19 02:31:46;;;;;;;;;43.00;36.25;;;;;0.58;73.43;101221.97;5119525;27;46107;-80
2024/01/19 02:34:11;;;;;;;;;46.25;35.50;;;;;0.64;73.87;101222.81;5118844;27;45399;-83
2024/01/19 02:36:36;;;;;;;;;37.50;32.25;;;;;0.57;73.38;101215.00;5119445;27;45358;-82
2024/01/19 02:39:02;;;;;;;;;38.00;33.50;;;;;0.62;73.30;101221.94;5119693;27;45436;-81
2024/01/19 02:41:27;;;;;;;;;39.50;32.00;;;;;0.69;73.02;101235.00;5118668;27;45408;-80
2024/01/19 02:43:53;;;;;;;;;36.25;32.50;;;;;0.47;73.29;101202.84;5117699;27;46686;-81
2024/01/19 02:46:21;;;;;;;;;55.25;32.25;;;;;0.73;73.23;101230.63;5118760;27;54299;-80
2024/01/19 02:48:46;;;;;;;;;32.75;32.75;;;;;0.68;73.21;101235.03;5119256;27;45333;-80
2024/01/19 02:51:12;;;;;;;;;42.00;33.50;;;;;0.66;73.43;101247.25;5119307;27;45552;-81
2024/01/19 02:53:37;;;;;;;;;36.00;32.00;;;;;0.60;73.27;101250.75;5118517;27;45264;-79
2024/01/19 02:56:03;;;;;;;;;41.50;38.50;;;;;0.49;73.45;101256.03;5118497;27;45562;-80
2024/01/19 02:58:28;;;;;;;;;38.75;33.25;;;;;0.40;73.87;101250.84;5132665;27;45296;-80
2024/01/19 03:00:54;;;;;;;;;52.75;38.00;;;;;0.29;73.95;101219.50;5140159;27;45582;-80
2024/01/19 03:03:19;;;;;;;;;39.25;36.75;;;;;0.41;73.93;101238.66;5119450;27;47486;-83
2024/01/19 03:05:45;;;;;;;;;36.50;34.00;;;;;0.38;73.65;101230.78;5139702;27;45383;-79
2024/01/19 03:08:10;;;;;;;;;40.00;34.50;;;;;0.31;74.18;101222.09;5139901;27;45902;-80
2024/01/19 03:10:36;;;;;;;;;37.50;34.00;;;;;0.36;74.29;101233.41;5139339;27;53817;-80
2024/01/19 03:13:01;;;;;;;;;48.25;31.00;;;;;0.38;74.31;101220.31;5123978;27;45471;-79
2024/01/19 03:15:26;;;;;;;;;45.25;33.75;;;;;0.45;73.61;101243.84;5117704;27;45480;-79
2024/01/19 03:17:51;;;;;;;;;33.50;31.00;;;;;0.44;73.72;101244.72;5118642;27;45459;-81
2024/01/19 03:20:17;;;;;;;;;43.50;37.50;;;;;0.37;73.48;101240.38;5117443;27;58344;-80
2024/01/19 03:22:42;;;;;;;;;37.00;34.00;;;;;0.39;74.03;101240.38;5117997;27;46170;-79
2024/01/19 03:25:08;;;;;;;;;34.75;28.25;;;;;0.26;73.71;101239.53;5099447;27;58857;-80
2024/01/19 03:27:33;;;;;;;;;37.00;32.50;;;;;0.29;74.41;101247.41;5100651;27;45337;-78
2024/01/19 03:29:58;;;;;;;;;41.50;36.75;;;;;0.25;74.45;101245.66;5118768;27;45242;-80
2024/01/19 03:32:24;;;;;;;;;45.25;32.50;;;;;0.28;74.18;101253.53;5117175;27;45622;-80
2024/01/19 03:34:49;;;;;;;;;38.25;35.00;;;;;0.13;74.58;101240.47;5118415;27;45358;-79
2024/01/19 03:37:15;;;;;;;;;46.75;33.50;;;;;0.08;74.75;101245.72;5117018;27;45321;-80
2024/01/19 03:39:40;;;;;;;;;34.75;30.00;;;;;0.15;75.01;101257.91;5118838;27;45493;-81
2024/01/19 03:42:05;;;;;;;;;39.25;33.25;;;;;0.17;74.74;101250.06;5118015;27;61078;-80
2024/01/19 03:44:31;;;;;;;;;33.50;32.00;;;;;0.13;75.08;101258.78;5118831;27;45417;-80
2024/01/19 03:46:59;;;;;;;;;37.25;31.25;;;;;0.08;75.06;101260.53;5118677;27;45322;-78
2024/01/19 03:49:24;;;;;;;;;41.75;35.00;;;;;0.12;75.30;101257.03;5118619;27;45365;-79
2024/01/19 03:52:04;;;;;;;;;38.00;33.25;;;;;0.16;74.40;101259.66;5116809;27;46177;-79
2024/01/19 03:54:30;;;;;;;;;18.75;18.75;;;;;0.26;75.05;101273.56;5118272;27;45381;-80
2024/01/19 03:56:58;;;;;;;;;37.00;32.00;;;;;0.28;75.13;101275.31;5117553;27;45488;-80
2024/01/19 03:59:24;;;;;;;;;29.50;27.75;;;;;0.31;74.75;101279.66;5105144;27;45544;-80
2024/01/19 04:01:50;;;;;;;;;33.50;31.75;;;;;0.31;74.99;101282.28;5136843;27;45548;-80
2024/01/19 04:04:15;;;;;;;;;37.25;31.00;;;;;0.25;75.27;101274.44;5138808;27;45423;-80
2024/01/19 04:06:40;;;;;;;;;42.25;36.25;;;;;0.27;75.06;101280.56;5138718;27;45342;-79
2024/01/19 04:09:06;;;;;;;;;35.00;32.00;;;;;0.26;74.95;101284.03;5139212;27;45336;-81
2024/01/19 04:11:36;;;;;;;;;39.75;32.50;;;;;0.23;75.12;101297.13;5118713;27;45483;-81
2024/01/19 04:14:02;;;;;;;;;36.75;35.25;;;;;0.07;75.81;101279.72;5099391;27;45717;-80
2024/01/19 04:16:27;;;;;;;;;39.50;35.00;;;;;0.07;75.80;101285.81;5117939;27;45415;-79
2024/01/19 04:18:52;;;;;;;;;36.50;33.25;;;;;0.11;76.05;101298.00;5115833;27;51260;-80
2024/01/19 04:21:17;;;;;;;;;39.50;33.25;;;;;0.09;75.93;101293.66;5101101;27;55153;-79
2024/01/19 04:23:44;;;;;;;;;36.00;33.50;;;;;0.07;76.03;101296.28;5136444;27;45581;-79
2024/01/19 04:26:10;;;;;;;;;38.50;33.75;;;;;-0.04;76.05;101301.53;5117976;27;45383;-79
2024/01/19 04:28:35;;;;;;;;;40.50;30.75;;;;;-0.03;76.85;101311.09;5117471;27;45372;-79
2024/01/19 04:31:01;;;;;;;;;41.00;38.25;;;;;-0.10;75.87;101311.13;5117732;27;45321;-83
2024/01/19 04:33:27;;;;;;;;;41.75;25.75;;;;;-0.04;76.27;101306.75;5117582;27;46415;-82
2024/01/19 04:35:52;;;;;;;;;43.33;34.33;;;;;-0.09;75.62;101305.91;5116920;27;60192;-80
2024/01/19 04:38:18;;;;;;;;;36.67;32.33;;;;;-0.10;76.38;101324.22;5117584;27;45294;-79
2024/01/19 04:40:43;;;;;;;;;45.75;38.25;;;;;-0.09;76.74;101315.50;5116934;27;45726;-79
2024/01/19 04:43:09;;;;;;;;;39.25;34.25;;;;;-0.08;76.82;101318.09;5138444;27;45407;-81
2024/01/19 04:45:34;;;;;;;;;44.25;37.00;;;;;-0.09;76.37;101321.59;5138253;27;45283;-78
2024/01/19 04:47:59;;;;;;;;;46.25;37.75;;;;;-0.14;76.58;101293.69;5138362;27;45338;-79
2024/01/19 04:50:24;;;;;;;;;36.25;32.75;;;;;0.06;76.69;101314.59;5128070;27;45290;-80
2024/01/19 04:52:50;;;;;;;;;41.25;38.00;;;;;0.13;76.22;101311.97;5116036;27;54563;-81
2024/01/19 04:55:15;;;;;;;;;25.50;23.00;;;;;0.12;75.74;101315.44;5117436;27;45365;-80
2024/01/19 04:57:40;;;;;;;;;42.25;32.50;;;;;0.21;76.10;101330.25;5117741;27;45309;-79
2024/01/19 05:00:06;;;;;;;;;43.00;37.00;;;;;0.20;75.74;101328.53;5117084;27;45279;-81
2024/01/19 05:02:32;;;;;;;;;42.50;37.50;;;;;0.11;75.50;101323.28;5116591;27;45339;-80
2024/01/19 05:04:59;;;;;;;;;42.00;37.00;;;;;0.17;76.22;101328.53;5117261;27;45356;-80
2024/01/19 05:07:26;;;;;;;;;42.75;36.25;;;;;0.20;75.91;101338.97;5117329;27;45524;-80
2024/01/19 05:09:51;;;;;;;;;44.25;37.50;;;;;0.18;75.70;101335.50;5116608;27;46984;-81
2024/01/19 05:12:17;;;;;;;;;34.00;32.00;;;;;0.16;76.57;101356.44;5116573;27;45390;-79
2024/01/19 05:14:42;;;;;;;;;28.50;27.50;;;;;0.04;76.20;101327.69;5117232;27;45341;-81
2024/01/19 05:17:07;;;;;;;;;35.75;32.75;;;;;0.14;75.80;101359.94;5117038;27;45779;-79
2024/01/19 05:19:33;;;;;;;;;36.25;35.50;;;;;0.11;76.18;101381.69;5116169;27;54536;-80
2024/01/19 05:21:58;;;;;;;;;43.50;37.00;;;;;0.08;76.87;101370.38;5115948;27;45337;-81
2024/01/19 05:24:23;;;;;;;;;40.00;35.75;;;;;0.08;76.35;101380.84;5116948;27;45276;-79
2024/01/19 05:26:48;;;;;;;;;46.25;41.25;;;;;0.06;76.84;101378.22;5117031;27;45335;-81
2024/01/19 05:29:14;;;;;;;;;25.00;23.00;;;;;0.08;76.72;101391.31;5116337;27;45399;-81
2024/01/19 05:31:39;;;;;;;;;39.00;36.50;;;;;0.10;76.58;101385.19;5116246;27;45258;-81
2024/01/19 05:34:05;;;;;;;;;47.25;41.50;;;;;0.09;76.33;101385.19;5117388;27;45379;-79
2024/01/19 05:36:30;;;;;;;;;42.25;38.50;;;;;0.15;76.28;101399.16;5100205;27;45234;-80
2024/01/19 05:38:55;;;;;;;;;45.33;42.67;;;;;0.19;76.12;101393.03;5115842;27;52053;-81
2024/01/19 05:41:21;;;;;;;;;45.67;40.67;;;;;0.14;76.25;101396.56;5100429;27;58357;-81
2024/01/19 05:43:47;;;;;;;;;40.67;37.67;;;;;0.04;76.07;101366.03;5116808;27;45448;-80
2024/01/19 05:46:13;;;;;;;;;48.00;42.00;;;;;0.18;76.07;101398.28;5117316;27;45384;-81
2024/01/19 05:48:39;;;;;;;;;47.67;41.33;;;;;0.14;76.77;101401.78;5098087;27;48079;-79
2024/01/19 05:51:15;;;;;;;;;47.67;42.00;;;;;0.02;75.88;101401.78;5115237;27;45622;-80
2024/01/19 05:53:41;;;;;;;;;55.67;45.67;;;;;-0.03;76.17;101397.41;5137851;27;45332;-80
2024/01/19 05:56:06;;;;;;;;;58.33;48.00;;;;;-0.07;76.89;101413.09;5137523;27;45611;-82
2024/01/19 05:58:32;;;;;;;;;42.33;40.67;;;;;-0.16;76.60;101403.50;5135553;27;46181;-79
2024/01/19 06:00:57;;;;;;;;;41.67;41.67;;;;;-0.28;76.84;101381.69;5118294;27;45521;-80
2024/01/19 06:03:23;;;;;;;;;47.67;38.67;;;;;-0.32;76.77;101388.69;5119454;27;45420;-79
2024/01/19 06:05:48;;;;;;;;;43.67;37.33;;;;;-0.22;76.65;101413.09;5120037;27;45650;-80
2024/01/19 06:08:13;;;;;;;;;50.67;44.33;;;;;-0.26;77.31;101414.84;5125916;27;45608;-80
2024/01/19 06:10:39;;;;;;;;;40.00;39.33;;;;;-0.16;77.50;101419.19;5114508;27;61399;-80
2024/01/19 06:13:04;;;;;;;;;46.33;42.33;;;;;-0.18;76.94;101423.53;5119991;27;49318;-80
2024/01/19 06:15:29;;;;;;;;;61.33;48.33;;;;;-0.06;77.32;101414.84;5118823;27;45248;-78
2024/01/19 06:17:55;;;;;;;;;50.67;40.00;;;;;-0.04;76.76;101429.66;5119875;27;45368;-81
2024/01/19 06:20:21;;;;;;;;;39.67;33.67;;;;;-0.02;77.06;101438.38;5118471;27;45298;-80
2024/01/19 06:22:46;;;;;;;;;54.33;44.33;;;;;-0.03;77.26;101435.75;5101145;27;45314;-80
2024/01/19 06:25:11;;;;;;;;;44.33;34.00;;;;;-0.03;77.01;101439.25;5120172;27;45542;-81
2024/01/19 06:27:37;;;;;;;;;50.33;42.33;;;;;0.02;76.91;101444.50;5118920;27;45535;-80
2024/01/19 06:30:04;;;;;;;;;45.00;40.00;;;;;0.05;76.65;101443.63;5125742;27;45430;-83
2024/01/19 06:32:30;;;;;;;;;38.75;33.75;;;;;0.02;76.06;101433.16;5131387;27;45269;-82
2024/01/19 06:34:55;;;;;;;;;42.67;38.33;;;;;0.07;76.08;101462.78;5122532;27;45448;-80
2024/01/19 06:37:21;;;;;;;;;44.00;40.33;;;;;0.05;76.34;101454.94;5122941;27;46006;-83
2024/01/19 06:39:46;;;;;;;;;54.00;43.67;;;;;-0.09;76.65;101444.47;5137126;27;45316;-80
2024/01/19 06:42:13;;;;;;;;;54.33;43.33;;;;;0.06;75.67;101466.28;5127722;27;45884;-78
2024/01/19 06:44:42;;;;;;;;;52.67;41.00;;;;;0.06;76.17;101476.75;5135212;27;45470;-79
2024/01/19 06:47:07;;;;;;;;;48.67;43.33;;;;;0.01;76.62;101478.50;5129437;27;45649;-82
2024/01/19 06:49:32;;;;;;;;;59.33;45.33;;;;;-0.26;76.65;101443.59;5119532;27;45985;-81
2024/01/19 06:51:59;;;;;;;;;57.33;45.00;;;;;-0.05;76.80;101484.56;5118309;27;50567;-80
2024/01/19 06:54:24;;;;;;;;;40.33;38.67;;;;;-0.22;77.07;101468.00;5120125;27;45455;-81
2024/01/19 06:56:50;;;;;;;;;47.33;39.33;;;;;-0.14;77.40;101477.56;5118480;27;46178;-81
2024/01/19 06:59:15;;;;;;;;;40.33;37.67;;;;;-0.12;77.29;101475.00;5119128;27;45491;-80
2024/01/19 07:01:40;;;;;;;;;55.25;43.75;;;;;-0.22;77.35;101471.47;5118597;27;53762;-81
2024/01/19 07:04:05;;;;;;;;;50.00;44.00;;;;;-0.15;77.36;101481.06;5100758;27;45535;-80
2024/01/19 07:06:32;;;;;;;;;62.33;47.67;;;;;-0.18;77.77;101485.41;5123849;27;45960;-82
2024/01/19 07:08:58;;;;;;;;;37.25;32.75;;;;;-0.21;77.77;101486.28;5119052;27;45343;-82
2024/01/19 07:11:23;;;;;;;;;29.00;22.00;;;;;-0.11;77.85;101489.81;5118045;27;45424;-79
2024/01/19 07:13:48;;;;;;;;;50.00;45.50;;;;;-0.09;77.59;101496.78;5118674;27;45373;-80
2024/01/19 07:16:14;;;;;;;;;40.00;33.00;;;;;-0.04;77.71;101495.03;5125315;27;45541;-80
2024/01/19 07:18:39;;;;;;;;;35.33;30.00;;;;;-0.02;77.13;101489.78;5139156;27;45342;-80
2024/01/19 07:21:05;;;;;;;;;35.50;32.50;;;;;0.05;77.69;101501.16;5139570;27;45178;-83
2024/01/19 07:23:30;;;;;;;;;56.75;44.25;;;;;0.05;77.11;101501.16;5139696;27;45513;-80
2024/01/19 07:25:55;;;;;;;;;54.33;45.00;;;;;0.09;76.97;101509.00;5139140;27;46088;-81
2024/01/19 07:28:21;;;;;;;;;51.67;42.00;;;;;-0.09;77.06;101475.84;5138981;27;62483;-81
2024/01/19 07:30:47;;;;;;;;;49.00;40.00;;;;;-0.11;77.42;101495.91;5140222;27;45387;-81
2024/01/19 07:33:12;;;;;;;;;58.67;44.33;;;;;0.00;77.45;101506.38;5137432;27;48003;-82
2024/01/19 07:35:39;;;;;;;;;57.67;45.67;;;;;-0.06;77.94;101499.38;5134212;27;56580;-82
2024/01/19 07:38:04;;;;;;;;;49.67;41.00;;;;;-0.05;77.66;101510.72;5120885;27;45226;-83
2024/01/19 07:40:29;;;;;;;;;45.00;37.33;;;;;-0.08;77.98;101506.34;5131454;27;45392;-82
2024/01/19 07:42:55;;;;;;;;;45.33;43.00;;;;;-0.02;77.63;101532.50;5122437;27;45581;-81
2024/01/19 07:45:20;;;;;;;;;51.33;41.67;;;;;-0.07;78.07;101533.38;5124464;27;45397;-82
2024/01/19 07:47:45;;;;;;;;;49.00;45.33;;;;;-0.04;78.30;101543.84;5118560;27;45312;-81
2024/01/19 07:50:11;;;;;;;;;49.33;47.00;;;;;-0.11;78.45;101532.50;5099554;27;45409;-81
2024/01/19 07:52:38;;;;;;;;;53.33;46.33;;;;;-0.02;77.98;101542.09;5118163;27;45600;-81
2024/01/19 07:55:04;;;;;;;;;48.67;44.67;;;;;0.08;77.71;101543.00;5118920;27;45431;-81
2024/01/19 07:57:32;;;;;;;;;54.33;45.00;;;;;0.13;77.28;101541.25;5129196;27;45250;-80
2024/01/19 07:59:58;;;;;;;;;58.67;49.00;;;;;0.03;77.23;101523.81;5099324;27;45267;-81
2024/01/19 08:02:24;;;;;;;;;53.67;45.67;;;;;0.25;77.48;101556.97;5131533;27;45188;-82
2024/01/19 08:04:49;;;;;;;;;59.67;46.33;;;;;0.23;77.60;101554.34;5138902;27;46281;-82
2024/01/19 08:07:15;;;;;;;;;51.67;42.33;;;;;0.01;77.39;101523.81;5122247;27;48161;-82
2024/01/19 08:09:40;;;;;;;;;45.00;40.00;;;;;0.14;76.97;101543.91;5117326;27;45445;-83
2024/01/19 08:12:06;;;;;;;;;51.33;45.67;;;;;0.27;77.44;101576.19;5118004;27;45303;-83
2024/01/19 08:14:31;;;;;;;;;50.33;46.33;;;;;0.24;77.36;101571.78;5117946;27;45927;-81
2024/01/19 08:16:56;;;;;;;;;56.67;49.67;;;;;0.21;77.23;101550.00;5123591;27;45837;-80
2024/01/19 08:19:22;;;;;;;;;45.67;41.67;;;;;0.35;76.93;101573.56;5114792;27;45370;-80
2024/01/19 08:21:47;;;;;;;;;52.67;46.00;;;;;0.35;76.31;101578.78;5116527;27;45464;-82
2024/01/19 08:24:12;;;;;;;;;54.33;45.67;;;;;0.39;76.68;101585.78;5130065;27;62741;-84
2024/01/19 08:26:38;;;;;;;;;55.00;45.33;;;;;0.32;76.64;101581.41;5117717;27;45418;-82
2024/01/19 08:29:03;;;;;;;;;61.00;45.33;;;;;0.38;76.21;101584.91;5110930;27;45437;-81
2024/01/19 08:31:30;;;;;;;;;38.33;32.67;;;;;0.45;75.45;101606.72;5116584;27;45636;-82
2024/01/19 08:33:56;;;;;;;;;54.00;47.00;;;;;0.47;76.03;101602.38;5116032;27;46465;-81
2024/01/19 08:36:24;;;;;;;;;55.67;48.00;;;;;0.49;75.45;101598.00;5097659;27;45443;-83
2024/01/19 08:38:50;;;;;;;;;58.67;47.33;;;;;0.56;75.05;101594.53;5117834;27;45468;-82
2024/01/19 08:41:15;;;;;;;;;60.33;49.33;;;;;0.72;75.25;101618.97;5116758;27;45409;-79
2024/01/19 08:43:41;;;;;;;;;58.25;49.25;;;;;0.77;74.90;101611.97;5116016;27;45478;-81
2024/01/19 08:46:07;;;;;;;;;60.67;48.00;;;;;0.89;75.00;101619.84;5133581;27;45457;-82
2024/01/19 08:48:33;;;;;;;;;63.67;51.00;;;;;1.03;74.47;101625.94;5136341;27;45479;-81
2024/01/19 08:50:59;;;;;;;;;64.00;51.33;;;;;1.07;74.33;101635.56;5136928;27;45431;-80
2024/01/19 08:53:24;;;;;;;;;65.67;51.33;;;;;1.17;74.77;101642.56;5136265;27;46240;-79
2024/01/19 08:55:50;;;;;;;;;56.00;47.50;;;;;1.18;73.60;101632.94;5136807;27;45362;-80
2024/01/19 08:58:16;;;;;;;;;53.75;46.75;;;;;1.26;73.06;101641.66;5136717;27;45347;-81
2024/01/19 09:00:42;;;;;;;;;50.25;44.75;;;;;1.14;72.91;101620.72;5130926;27;45570;-80
2024/01/19 09:03:07;;;;;;;;;49.00;44.50;;;;;1.23;73.03;101628.56;5122467;27;45405;-82
2024/01/19 09:05:34;;;;;;;;;51.00;46.25;;;;;1.37;72.49;101649.50;5115808;27;45338;-80
2024/01/19 09:07:59;;;;;;;;;63.50;49.75;;;;;1.27;72.41;101653.00;5134675;27;45425;-80
2024/01/19 09:10:25;;;;;;;;;51.00;46.00;;;;;1.22;73.18;101655.66;5136975;27;45587;-81
2024/01/19 09:12:50;;;;;;;;;52.25;43.50;;;;;1.18;73.08;101662.66;5131776;27;57086;-80
2024/01/19 09:15:16;;;;;;;;;58.00;46.75;;;;;1.12;73.20;101648.66;5115619;27;45444;-80
2024/01/19 09:17:41;;;;;;;;;59.75;39.75;;;;;1.30;73.16;101668.72;5115218;27;45503;-81
2024/01/19 09:20:07;;;;;;;;;61.33;50.33;;;;;1.25;73.39;101675.72;5115697;27;45778;-79
2024/01/19 09:22:32;;;;;;;;;65.00;51.67;;;;;1.30;73.51;101677.50;5114870;27;45428;-79
2024/01/19 09:24:58;;;;;;;;;49.67;43.67;;;;;1.20;73.26;101661.78;5107010;27;45899;-80
2024/01/19 09:27:23;;;;;;;;;57.33;48.33;;;;;1.28;73.43;101666.09;5115737;27;51901;-81
2024/01/19 09:29:48;;;;;;;;;50.33;42.67;;;;;1.48;73.35;101684.44;5100874;27;45369;-82
2024/01/19 09:32:16;;;;;;;;;60.00;47.00;;;;;1.55;72.76;101674.81;5136258;27;45572;-82
2024/01/19 09:34:43;;;;;;;;;61.33;46.67;;;;;1.68;72.31;101681.78;5135793;27;45517;-80
2024/01/19 09:37:08;;;;;;;;;49.50;46.50;;;;;1.62;72.50;101669.56;5138908;27;45626;-81
2024/01/19 09:39:34;;;;;;;;;39.50;37.50;;;;;1.55;72.18;101666.94;5126179;27;45471;-81
2024/01/19 09:42:06;;;;;;;;;55.25;46.25;;;;;1.69;72.90;101689.66;5126240;27;45612;-80
2024/01/19 09:44:36;;;;;;;;;58.00;48.00;;;;;1.65;71.79;101677.41;5139577;27;45706;-81
2024/01/19 09:47:21;;;;;;;;;60.00;48.00;;;;;1.72;72.28;101700.16;5138555;27;45518;-80
2024/01/19 09:50:06;;;;;;;;;53.50;45.25;;;;;1.71;72.01;101690.53;5139511;27;45385;-80
2024/01/19 09:52:34;;;;;;;;;51.75;46.00;;;;;1.69;72.25;101692.28;5120136;27;46163;-80
2024/01/19 09:54:59;;;;;;;;;63.00;49.00;;;;;1.60;72.30;101673.94;5138795;27;45418;-79
2024/01/19 09:57:25;;;;;;;;;57.75;46.50;;;;;1.94;71.70;101695.69;5120339;27;45487;-81
2024/01/19 09:59:52;;;;;;;;;59.50;45.75;;;;;2.12;71.40;101702.66;5139409;27;45359;-81
2024/01/19 10:02:20;;;;;;;;;60.00;50.33;;;;;2.16;70.21;101698.25;5138571;27;46146;-79
2024/01/19 10:04:45;;;;;;;;;51.25;45.25;;;;;2.29;70.81;101711.31;5120471;27;45466;-81
2024/01/19 10:07:11;;;;;;;;;60.50;50.00;;;;;2.41;70.50;101717.41;5138489;27;45751;-80
2024/01/19 10:09:37;;;;;;;;;64.25;52.50;;;;;2.50;70.21;101725.25;5139034;27;45584;-79
2024/01/19 10:12:06;;;;;;;;;67.67;54.67;;;;;2.64;69.41;101728.69;5119954;27;46383;-81
2024/01/19 10:14:31;;;;;;;;;46.75;40.50;;;;;2.68;69.42;101714.63;5138989;27;45313;-80
2024/01/19 10:16:58;;;;;;;;;59.50;46.50;;;;;2.74;68.49;101716.38;5138801;27;45349;-80
2024/01/19 10:19:25;;;;;;;;;55.50;49.75;;;;;2.86;68.90;101714.50;5138988;27;45614;-79
2024/01/19 10:21:50;;;;;;;;;59.00;47.50;;;;;3.04;68.08;101725.81;5136601;27;48231;-82
2024/01/19 10:24:20;;;;;;;;;50.75;45.00;;;;;3.19;67.54;101730.94;5138583;27;45470;-82
2024/01/19 10:26:53;;;;;;;;;72.75;52.00;;;;;3.42;67.66;101726.38;5138849;27;45367;-81
2024/01/19 10:29:19;;;;;;;;;51.00;37.50;;;;;3.68;67.56;101720.88;5120316;27;45553;-83
2024/01/19 10:31:49;;;;;;;;;60.00;48.75;;;;;4.00;66.51;101717.91;5137926;27;45460;-82
2024/01/19 10:34:20;;;;;;;;;51.25;47.00;;;;;4.08;64.29;101699.41;5138508;27;45411;-81
2024/01/19 10:36:47;;;;;;;;;56.25;45.00;;;;;4.25;64.01;101707.09;5138984;27;45342;-80
2024/01/19 10:39:17;;;;;;;;;59.50;47.75;;;;;4.48;64.02;101723.47;5138522;27;45322;-80
2024/01/19 10:41:43;;;;;;;;;48.25;42.75;;;;;4.58;64.18;101711.06;5137169;27;45419;-84
2024/01/19 10:44:16;;;;;;;;;56.75;47.75;;;;;4.89;63.83;101722.91;5117814;27;45744;-82
2024/01/19 10:46:42;;;;;;;;;60.50;48.25;;;;;5.12;62.14;101719.06;5119364;27;45487;-81
2024/01/19 10:49:10;;;;;;;;;61.25;51.50;;;;;5.19;60.77;101711.00;5127090;27;45535;-80
2024/01/19 10:51:39;;;;;;;;;66.25;52.00;;;;;5.22;61.32;101705.72;5127557;27;45433;-82
2024/01/19 10:54:04;;;;;;;;;64.50;53.00;;;;;5.46;60.54;101714.97;5117428;27;45515;-82
2024/01/19 10:56:30;;;;;;;;;67.25;51.00;;;;;5.67;60.24;101723.41;5099094;27;45675;-81
2024/01/19 10:59:09;;;;;;;;;68.25;52.00;;;;;5.95;60.83;101718.53;5116708;27;45598;-80
2024/01/19 11:01:34;;;;;;;;;65.75;51.50;;;;;6.15;58.31;101711.09;5116014;27;45477;-81
2024/01/19 11:04:00;;;;;;;;;57.25;46.25;;;;;6.36;57.88;101704.50;5136921;27;45477;-80
2024/01/19 11:06:26;;;;;;;;;56.50;49.50;;;;;6.62;56.34;101711.88;5137467;27;45424;-83
2024/01/19 11:08:51;;;;;;;;;63.50;52.25;;;;;6.73;56.66;101701.94;5138746;27;45634;-81
2024/01/19 11:11:21;;;;;;;;;60.25;48.75;;;;;6.93;56.97;101697.06;5130044;27;45412;-82